CHIUDI BANNER

LIVE Streaming HD
Get Adobe Flash player
Dati meteo stazione (refresh automatico ogni minuto)
Ostia(RM) VENTO: VELOCITÀ   PIOGGIA: QTA GIORNO TEMPERATURA: ATTUALE
SPOT: Kursaal Lido Ostia ---- Posizione su Googlemap:Latitudine: 41.71N Longitudine: 12.31E RAFFICA MASSIMA: QTA MENSILE: MASSIMA:
VELOCITÀ MEDIA: QTA ANNUALE: MINIMA:
DIREZIONE: UMIDITÀ: WIND CHILL:
TIPO: DEW POINT:
BEAUFORT: PRESSIONE:
I nostri partner
Ostia(RM) nelle ultime ore
Applica filtri in visualizzazione Intervallo delle letture nelle ultime

Ora Direzione Vento Velocita' Vento Media Vento Raffica Max. Temperatura Wind Chill Pioggia Pressione
17:28:4591 °(E)0 Kts0 Kts7.4 Kts12.3 °C20.76 °C1.09 mm1022.2 Hpa
17:23:27121 °(ESE)0 Kts0 Kts7.4 Kts12.5 °C20.88 °C1.09 mm1021 Hpa
17:19:04111 °(ESE)0 Kts0 Kts7.4 Kts12.6 °C20.95 °C1.09 mm1019.7 Hpa
17:13:4992 °(E)0 Kts0 Kts7.4 Kts12.6 °C20.95 °C1.09 mm1020.7 Hpa
17:08:3397 °(E)0 Kts0.23 Kts7.4 Kts12.8 °C21.07 °C1.09 mm1021.1 Hpa
17:04:11117 °(ESE)0.5 Kts0.36 Kts7.4 Kts12.8 °C14.84 °C1.09 mm1021.1 Hpa
16:58:56102 °(ESE)0.5 Kts1.06 Kts7.4 Kts13 °C15.05 °C1.09 mm1022 Hpa
16:53:4298 °(E)1 Kts0.8 Kts7.4 Kts13.1 °C14.53 °C1.09 mm1021.6 Hpa
16:48:27107 °(ESE)0 Kts0 Kts7.4 Kts13.1 °C21.26 °C1.09 mm1021.6 Hpa
16:43:09128 °(SE)2 Kts0.86 Kts7.4 Kts13.3 °C13.94 °C1.09 mm1019.5 Hpa
16:39:0299 °(E)0.8 Kts0.86 Kts7.4 Kts13.3 °C14.92 °C1.09 mm1020.8 Hpa
16:32:56134 °(SE)1.9 Kts1.6 Kts7.4 Kts13.5 °C14.17 °C1.09 mm1020.8 Hpa
16:28:34134 °(SE)0.8 Kts0.73 Kts7.4 Kts13.6 °C15.23 °C1.09 mm1021.3 Hpa
16:24:11169 °(S)1.4 Kts0 Kts7.4 Kts13.6 °C14.64 °C1.09 mm1020 Hpa
16:18:56134 °(SE)0 Kts0 Kts7.4 Kts13.6 °C21.57 °C1.09 mm1020.5 Hpa
16:13:42141 °(SE)0.7 Kts0.8 Kts7.4 Kts13.6 °C15.36 °C1.09 mm1022.2 Hpa
16:08:26130 °(SE)0.9 Kts1.16 Kts7.4 Kts13.6 °C15.12 °C1.09 mm1020.5 Hpa
16:04:05138 °(SE)0 Kts0 Kts7.4 Kts13.8 °C21.69 °C1.09 mm1020.9 Hpa
15:58:48159 °(SSE)0 Kts0 Kts7.4 Kts13.8 °C21.69 °C1.09 mm1022.2 Hpa
15:53:3498 °(E)0.5 Kts0.76 Kts7.4 Kts13.8 °C15.86 °C1.09 mm1020.9 Hpa
15:49:13113 °(ESE)0.8 Kts0.7 Kts7.4 Kts13.8 °C15.44 °C1.09 mm1020.9 Hpa
15:43:5498 °(E)0 Kts0.4 Kts7.4 Kts13.8 °C21.69 °C1.09 mm1020.9 Hpa
15:38:31139 °(SE)2.7 Kts3.16 Kts7.4 Kts13.8 °C14.15 °C1.09 mm1020.9 Hpa
15:33:44139 °(SE)3.6 Kts4.03 Kts7.4 Kts13.8 °C13.79 °C1.09 mm1020.9 Hpa